createdAt,value
2023-05-22T00:00:31.811Z,98226.91
2023-05-22T00:02:58.797Z,98228.75
2023-05-22T00:05:25.506Z,98219.81
2023-05-22T00:07:52.012Z,98227.72
2023-05-22T00:10:18.785Z,98222.81
2023-05-22T00:12:45.529Z,98223.13
2023-05-22T00:15:12.219Z,98218.69
2023-05-22T00:17:39.044Z,98218.25
2023-05-22T00:20:10.886Z,98216.84
2023-05-22T00:22:37.919Z,98212.75
2023-05-22T00:25:05.961Z,98211.19
2023-05-22T00:27:33.818Z,98217.88
2023-05-22T00:30:01.048Z,98215.59
2023-05-22T00:32:27.790Z,98212.09
2023-05-22T00:34:54.326Z,98202.81
2023-05-22T00:37:20.922Z,98208.31
2023-05-22T00:39:47.703Z,98203.19
2023-05-22T00:42:14.236Z,98206.75
2023-05-22T00:44:41.832Z,98203.09
2023-05-22T00:47:08.396Z,98203.47
2023-05-22T00:49:34.937Z,98200.81
2023-05-22T00:52:02.590Z,98193.78
2023-05-22T00:54:37.938Z,98198.81
2023-05-22T00:57:09.710Z,98201.66
2023-05-22T00:59:36.444Z,98205.69
2023-05-22T01:02:06.348Z,98192.88
2023-05-22T01:04:33.321Z,98203.75
2023-05-22T01:07:03.008Z,98194.97
2023-05-22T01:09:30.227Z,98192.44
2023-05-22T01:12:31.930Z,98186.78
2023-05-22T01:15:31.901Z,98185.00
2023-05-22T01:18:27.507Z,98188.66
2023-05-22T01:21:32.865Z,98179.03
2023-05-22T01:24:43.384Z,98187.06
2023-05-22T01:27:35.159Z,98178.78
2023-05-22T01:30:34.813Z,98183.41
2023-05-22T01:33:04.290Z,98183.94
2023-05-22T01:35:34.098Z,98187.34
2023-05-22T01:38:03.267Z,98177.56
2023-05-22T01:40:31.774Z,98187.06
2023-05-22T01:42:58.727Z,98177.41
2023-05-22T01:45:26.045Z,98177.56
2023-05-22T01:47:52.627Z,98181.44
2023-05-22T01:50:21.109Z,98175.31
2023-05-22T01:52:58.970Z,98170.59
2023-05-22T01:55:40.361Z,98174.75
2023-05-22T01:58:42.791Z,98177.84
2023-05-22T02:01:14.107Z,98171.41
2023-05-22T02:03:42.741Z,98176.97
2023-05-22T02:06:13.739Z,98170.34
2023-05-22T02:08:42.883Z,98178.84
2023-05-22T02:11:13.650Z,98179.28
2023-05-22T02:13:40.483Z,98179.72
2023-05-22T02:16:18.015Z,98174.97
2023-05-22T02:18:47.968Z,98180.69
2023-05-22T02:21:22.156Z,98179.59
2023-05-22T02:23:50.175Z,98175.94
2023-05-22T02:26:16.687Z,98172.34
2023-05-22T02:28:43.844Z,98176.41
2023-05-22T02:31:10.632Z,98175.97
2023-05-22T02:33:37.201Z,98178.22
2023-05-22T02:36:03.992Z,98177.50
2023-05-22T02:38:30.594Z,98162.97
2023-05-22T02:40:57.126Z,98163.25
2023-05-22T02:43:23.603Z,98169.84
2023-05-22T02:45:58.668Z,98170.81
2023-05-22T02:48:25.232Z,98168.97
2023-05-22T02:50:54.692Z,98175.28
2023-05-22T02:53:21.872Z,98173.34
2023-05-22T02:55:48.449Z,98173.59
2023-05-22T02:58:15.021Z,98164.09
2023-05-22T03:00:41.981Z,98168.88
2023-05-22T03:03:17.996Z,98161.03
2023-05-22T03:05:45.984Z,98160.22
2023-05-22T03:08:12.575Z,98161.75
2023-05-22T03:10:52.922Z,98162.03
2023-05-22T03:13:19.676Z,98159.53
2023-05-22T03:15:46.308Z,98162.47
2023-05-22T03:18:22.385Z,98156.41
2023-05-22T03:20:49.143Z,98167.03
2023-05-22T03:23:15.733Z,98155.59
2023-05-22T03:25:48.050Z,98154.75
2023-05-22T03:28:27.075Z,98157.84
2023-05-22T03:30:53.622Z,98152.25
2023-05-22T03:33:20.252Z,98154.34
2023-05-22T03:35:46.733Z,98156.41
2023-05-22T03:38:13.408Z,98155.88
2023-05-22T03:40:40.215Z,98155.31
2023-05-22T03:43:06.871Z,98154.06
2023-05-22T03:45:33.552Z,98157.25
2023-05-22T03:48:00.207Z,98162.56
2023-05-22T03:50:27.835Z,98161.31
2023-05-22T03:52:54.317Z,98171.50
2023-05-22T03:55:21.372Z,98170.53
2023-05-22T03:57:47.860Z,98166.19
2023-05-22T04:00:16.919Z,98168.47
2023-05-22T04:02:45.289Z,98175.00
2023-05-22T04:05:12.226Z,98180.59
2023-05-22T04:07:41.852Z,98175.84
2023-05-22T04:10:09.042Z,98170.13
2023-05-22T04:12:35.567Z,98178.88
2023-05-22T04:15:02.256Z,98184.47
2023-05-22T04:17:33.429Z,98188.22
2023-05-22T04:20:03.292Z,98194.09
2023-05-22T04:22:30.822Z,98190.63
2023-05-22T04:24:57.557Z,98190.47
2023-05-22T04:27:24.849Z,98197.16
2023-05-22T04:29:51.401Z,98187.13
2023-05-22T04:32:32.333Z,98191.03
2023-05-22T04:35:00.526Z,98188.25
2023-05-22T04:37:28.590Z,98185.59
2023-05-22T04:39:58.181Z,98192.59
2023-05-22T04:42:25.312Z,98189.94
2023-05-22T04:44:57.961Z,98201.38
2023-05-22T04:47:24.615Z,98201.22
2023-05-22T04:49:51.703Z,98204.44
2023-05-22T04:52:18.245Z,98201.91
2023-05-22T04:54:46.645Z,98201.06
2023-05-22T04:57:13.216Z,98200.34
2023-05-22T04:59:40.147Z,98195.03
2023-05-22T05:02:10.966Z,98203.13
2023-05-22T05:04:37.819Z,98195.69
2023-05-22T05:07:05.990Z,98198.63
2023-05-22T05:09:33.164Z,98205.03
2023-05-22T05:11:59.669Z,98206.41
2023-05-22T05:14:26.217Z,98207.13
2023-05-22T05:16:52.996Z,98201.38
2023-05-22T05:19:26.337Z,98194.63
2023-05-22T05:21:52.945Z,98199.38
2023-05-22T05:24:20.967Z,98203.13
2023-05-22T05:26:47.569Z,98202.97
2023-05-22T05:29:14.078Z,98206.44
2023-05-22T05:31:40.755Z,98210.09
2023-05-22T05:34:07.623Z,98210.19
2023-05-22T05:36:34.341Z,98208.63
2023-05-22T05:39:00.974Z,98198.38
2023-05-22T05:41:28.295Z,98199.75
2023-05-22T05:43:57.341Z,98202.13
2023-05-22T05:46:23.929Z,98201.75
2023-05-22T05:48:50.507Z,98196.88
2023-05-22T05:51:17.043Z,98201.28
2023-05-22T05:53:43.543Z,98203.34
2023-05-22T05:56:10.257Z,98201.28
2023-05-22T05:58:37.165Z,98207.44
2023-05-22T06:01:04.137Z,98201.38
2023-05-22T06:03:31.239Z,98206.63
2023-05-22T06:05:58.179Z,98206.94
2023-05-22T06:08:24.854Z,98209.59
2023-05-22T06:10:59.559Z,98209.41
2023-05-22T06:13:26.052Z,98212.19
2023-05-22T06:15:52.726Z,98216.03
2023-05-22T06:18:19.393Z,98218.69
2023-05-22T06:20:45.931Z,98212.34
2023-05-22T06:23:12.507Z,98212.78
2023-05-22T06:25:39.896Z,98220.47
2023-05-22T06:28:06.623Z,98213.94
2023-05-22T06:30:40.378Z,98211.19
2023-05-22T06:33:07.863Z,98210.50
2023-05-22T06:35:34.557Z,98205.47
2023-05-22T06:38:01.193Z,98210.16
2023-05-22T06:40:27.955Z,98219.88
2023-05-22T06:42:59.103Z,98215.25
2023-05-22T06:45:25.812Z,98219.50
2023-05-22T06:47:54.049Z,98221.41
2023-05-22T06:50:22.401Z,98225.34
2023-05-22T06:52:49.292Z,98231.22
2023-05-22T06:55:16.385Z,98224.63
2023-05-22T06:57:42.923Z,98226.69
2023-05-22T07:00:14.878Z,98231.59
2023-05-22T07:02:41.512Z,98230.31
2023-05-22T07:05:09.116Z,98234.34
2023-05-22T07:07:35.923Z,98235.69
2023-05-22T07:10:02.557Z,98234.56
2023-05-22T07:12:29.485Z,98237.22
2023-05-22T07:14:57.061Z,98238.25
2023-05-22T07:17:23.615Z,98241.25
2023-05-22T07:19:52.453Z,98239.13
2023-05-22T07:22:25.122Z,98233.63
2023-05-22T07:24:51.712Z,98228.63
2023-05-22T07:27:20.763Z,98233.28
2023-05-22T07:29:50.535Z,98239.97
2023-05-22T07:32:17.094Z,98228.56
2023-05-22T07:34:46.471Z,98235.25
2023-05-22T07:37:14.250Z,98232.19
2023-05-22T07:39:40.893Z,98228.03
2023-05-22T07:42:08.113Z,98227.84
2023-05-22T07:44:34.747Z,98226.84
2023-05-22T07:47:01.261Z,98222.59
2023-05-22T07:49:30.876Z,98227.69
2023-05-22T07:51:57.424Z,98226.47
2023-05-22T07:54:24.194Z,98227.56
2023-05-22T07:56:52.090Z,98224.88
2023-05-22T07:59:19.697Z,98236.59
2023-05-22T08:01:46.348Z,98226.16
2023-05-22T08:04:13.194Z,98230.78
2023-05-22T08:06:39.979Z,98233.03
2023-05-22T08:09:06.621Z,98233.25
2023-05-22T08:11:34.116Z,98229.81
2023-05-22T08:14:03.711Z,98240.16
2023-05-22T08:16:30.967Z,98235.88
2023-05-22T08:18:57.607Z,98231.38
2023-05-22T08:21:24.176Z,98243.50
2023-05-22T08:23:50.978Z,98235.03
2023-05-22T08:26:17.564Z,98232.88
2023-05-22T08:28:44.480Z,98239.00
2023-05-22T08:31:11.944Z,98235.41
2023-05-22T08:33:39.796Z,98233.63
2023-05-22T08:36:06.843Z,98234.75
2023-05-22T08:38:33.683Z,98239.00
2023-05-22T08:41:00.290Z,98234.09
2023-05-22T08:43:28.601Z,98237.81
2023-05-22T08:46:04.357Z,98235.28
2023-05-22T08:48:32.995Z,98241.28
2023-05-22T08:51:05.653Z,98238.41
2023-05-22T08:53:36.534Z,98239.09
2023-05-22T08:56:08.809Z,98230.84
2023-05-22T08:58:37.874Z,98234.84
2023-05-22T09:01:06.767Z,98225.53
2023-05-22T09:03:35.001Z,98235.91
2023-05-22T09:06:04.552Z,98226.44
2023-05-22T09:08:31.098Z,98224.91
2023-05-22T09:10:57.803Z,98226.88
2023-05-22T09:13:30.878Z,98219.50
2023-05-22T09:16:15.042Z,98216.56
2023-05-22T09:18:42.588Z,98225.09
2023-05-22T09:21:25.964Z,98211.94
2023-05-22T09:24:01.479Z,98210.25
2023-05-22T09:26:29.564Z,98213.06
2023-05-22T09:29:02.173Z,98214.31
2023-05-22T09:31:29.730Z,98210.91
2023-05-22T09:33:56.700Z,98203.94
2023-05-22T09:36:33.027Z,98205.44
2023-05-22T09:39:04.752Z,98209.25
2023-05-22T09:41:36.753Z,98201.59
2023-05-22T09:44:13.592Z,98197.50
2023-05-22T09:46:47.663Z,98197.66
2023-05-22T09:49:16.755Z,98201.41
2023-05-22T09:51:48.332Z,98202.25
2023-05-22T09:54:17.349Z,98204.16
2023-05-22T09:56:48.492Z,98193.22
2023-05-22T09:59:23.815Z,98189.88
2023-05-22T10:01:50.741Z,98195.31
2023-05-22T10:04:18.891Z,98205.72
2023-05-22T10:06:53.685Z,98198.44
2023-05-22T10:09:24.877Z,98202.59
2023-05-22T10:11:56.523Z,98192.84
2023-05-22T10:14:24.345Z,98202.00
2023-05-22T10:16:51.493Z,98194.53
2023-05-22T10:19:18.552Z,98197.22
2023-05-22T10:21:47.353Z,98196.78
2023-05-22T10:24:14.739Z,98186.22
2023-05-22T10:26:44.081Z,98199.50
2023-05-22T10:29:22.098Z,98191.41
2023-05-22T10:32:19.161Z,98187.25
2023-05-22T10:35:00.947Z,98187.28
2023-05-22T10:37:47.389Z,98188.72
2023-05-22T10:40:28.695Z,98176.66
2023-05-22T10:43:06.542Z,98165.50
2023-05-22T10:45:33.556Z,98168.59
2023-05-22T10:48:12.423Z,98168.38
2023-05-22T10:50:40.972Z,98164.81
2023-05-22T10:53:31.276Z,98175.00
2023-05-22T10:56:02.954Z,98165.84
2023-05-22T10:58:38.885Z,98171.03
2023-05-22T11:01:20.375Z,98169.91
2023-05-22T11:04:09.311Z,98167.41
2023-05-22T11:06:49.966Z,98170.63
2023-05-22T11:09:19.220Z,98165.53
2023-05-22T11:11:47.432Z,98158.91
2023-05-22T11:14:18.402Z,98160.97
2023-05-22T11:16:45.048Z,98160.13
2023-05-22T11:19:22.870Z,98160.50
2023-05-22T11:21:50.656Z,98159.34
2023-05-22T11:24:18.084Z,98152.69
2023-05-22T11:27:01.267Z,98152.97
2023-05-22T11:29:29.430Z,98143.28
2023-05-22T11:31:58.478Z,98131.78
2023-05-22T11:34:28.859Z,98140.84
2023-05-22T11:37:01.940Z,98150.75
2023-05-22T11:39:28.526Z,98140.84
2023-05-22T11:41:55.323Z,98137.16
2023-05-22T11:44:21.892Z,98146.16
2023-05-22T11:46:48.575Z,98138.53
2023-05-22T11:49:15.217Z,98138.09
2023-05-22T11:51:42.180Z,98133.75
2023-05-22T11:54:08.747Z,98136.38
2023-05-22T11:56:35.263Z,98135.53
2023-05-22T11:59:02.087Z,98138.09
2023-05-22T12:01:28.665Z,98143.56
2023-05-22T12:03:55.483Z,98129.75
2023-05-22T12:06:22.420Z,98126.81
2023-05-22T12:08:49.098Z,98124.13
2023-05-22T12:11:16.614Z,98130.31
2023-05-22T12:13:43.431Z,98121.94
2023-05-22T12:16:24.148Z,98123.09
2023-05-22T12:18:54.386Z,98114.72
2023-05-22T12:21:22.117Z,98114.22
2023-05-22T12:23:51.266Z,98111.72
2023-05-22T12:26:18.182Z,98112.81
2023-05-22T12:28:44.814Z,98115.53
2023-05-22T12:31:11.468Z,98113.53
2023-05-22T12:33:40.495Z,98123.53
2023-05-22T12:36:08.035Z,98125.31
2023-05-22T12:38:35.645Z,98131.56
2023-05-22T12:41:02.293Z,98130.75
2023-05-22T12:43:28.902Z,98146.81
2023-05-22T12:45:55.619Z,98143.88
2023-05-22T12:48:22.964Z,98149.28
2023-05-22T12:50:49.510Z,98148.91
2023-05-22T12:53:16.037Z,98137.09
2023-05-22T12:55:43.407Z,98146.56
2023-05-22T12:58:10.040Z,98145.78
2023-05-22T13:00:36.639Z,98147.75
2023-05-22T13:03:04.243Z,98150.31
2023-05-22T13:05:31.073Z,98143.06
2023-05-22T13:07:57.744Z,98137.47
2023-05-22T13:10:24.360Z,98139.09
2023-05-22T13:12:51.599Z,98134.84
2023-05-22T13:15:18.716Z,98133.44
2023-05-22T13:17:45.810Z,98137.03
2023-05-22T13:20:13.408Z,98139.66
2023-05-22T13:22:41.714Z,98142.78
2023-05-22T13:25:08.883Z,98151.09
2023-05-22T13:27:35.393Z,98144.78
2023-05-22T13:30:02.002Z,98139.13
2023-05-22T13:32:28.593Z,98149.38
2023-05-22T13:34:55.193Z,98157.66
2023-05-22T13:37:21.913Z,98153.00
2023-05-22T13:39:48.498Z,98160.28
2023-05-22T13:42:15.492Z,98161.59
2023-05-22T13:44:42.121Z,98158.59
2023-05-22T13:47:08.828Z,98146.09
2023-05-22T13:49:35.472Z,98149.88
2023-05-22T13:52:02.011Z,98161.50
2023-05-22T13:54:28.616Z,98165.66
2023-05-22T13:56:57.584Z,98157.38
2023-05-22T13:59:24.256Z,98158.41
2023-05-22T14:01:50.797Z,98162.84
2023-05-22T14:04:17.451Z,98161.56
2023-05-22T14:06:44.005Z,98157.84
2023-05-22T14:09:10.698Z,98166.22
2023-05-22T14:11:37.325Z,98168.78
2023-05-22T14:14:03.961Z,98171.31
2023-05-22T14:16:30.598Z,98172.75
2023-05-22T14:18:57.314Z,98173.75
2023-05-22T14:21:23.891Z,98178.00
2023-05-22T14:23:50.541Z,98181.13
2023-05-22T14:26:17.299Z,98169.41
2023-05-22T14:28:44.094Z,98159.34
2023-05-22T14:31:10.881Z,98158.53
2023-05-22T14:33:37.512Z,98151.69
2023-05-22T14:36:04.472Z,98152.72
2023-05-22T14:38:33.726Z,98155.91
2023-05-22T14:41:03.470Z,98159.59
2023-05-22T14:43:30.169Z,98148.88
2023-05-22T14:45:57.991Z,98152.78
2023-05-22T14:48:26.273Z,98162.09
2023-05-22T14:50:55.806Z,98164.75
2023-05-22T14:53:23.189Z,98169.31
2023-05-22T14:55:49.763Z,98167.44
2023-05-22T14:58:16.347Z,98167.50
2023-05-22T15:00:42.973Z,98161.66
2023-05-22T15:03:09.610Z,98153.44
2023-05-22T15:05:36.329Z,98150.56
2023-05-22T15:08:02.913Z,98148.69
2023-05-22T15:10:29.618Z,98152.25
2023-05-22T15:12:56.512Z,98150.94
2023-05-22T15:15:23.132Z,98148.91
2023-05-22T15:17:49.762Z,98146.22
2023-05-22T15:20:16.460Z,98141.84
2023-05-22T15:22:42.988Z,98141.59
2023-05-22T15:25:12.578Z,98131.88
2023-05-22T15:27:39.656Z,98138.09
2023-05-22T15:30:09.567Z,98142.19
2023-05-22T15:32:37.330Z,98140.88
2023-05-22T15:35:05.613Z,98132.16
2023-05-22T15:37:33.702Z,98131.91
2023-05-22T15:40:01.668Z,98138.50
2023-05-22T15:42:28.617Z,98136.59
2023-05-22T15:44:55.540Z,98138.47
2023-05-22T15:47:22.171Z,98139.09
2023-05-22T15:49:48.720Z,98140.31
2023-05-22T15:52:15.585Z,98131.09
2023-05-22T15:54:42.196Z,98132.69
2023-05-22T15:57:08.712Z,98133.34
2023-05-22T15:59:35.246Z,98134.34
2023-05-22T16:02:01.778Z,98130.38
2023-05-22T16:04:28.318Z,98127.00
2023-05-22T16:06:54.875Z,98141.88
2023-05-22T16:09:21.479Z,98132.38
2023-05-22T16:11:48.042Z,98132.22
2023-05-22T16:14:14.611Z,98136.16
2023-05-22T16:16:41.190Z,98138.16
2023-05-22T16:19:08.071Z,98146.38
2023-05-22T16:21:34.679Z,98129.72
2023-05-22T16:24:01.253Z,98136.94
2023-05-22T16:26:27.790Z,98138.34
2023-05-22T16:28:54.283Z,98138.13
2023-05-22T16:31:20.850Z,98133.47
2023-05-22T16:33:47.422Z,98133.63
2023-05-22T16:36:13.939Z,98126.66
2023-05-22T16:38:41.975Z,98125.53
2023-05-22T16:41:08.538Z,98124.72
2023-05-22T16:43:36.645Z,98129.84
2023-05-22T16:46:03.194Z,98130.69
2023-05-22T16:48:29.777Z,98136.72
2023-05-22T16:50:56.297Z,98130.41
2023-05-22T16:53:22.841Z,98133.38
2023-05-22T16:55:49.368Z,98128.25
2023-05-22T16:58:15.910Z,98132.63
2023-05-22T17:00:42.919Z,98134.31
2023-05-22T17:03:11.627Z,98135.97
2023-05-22T17:05:38.769Z,98134.34
2023-05-22T17:08:06.383Z,98142.44
2023-05-22T17:10:32.928Z,98143.94
2023-05-22T17:12:59.491Z,98145.59
2023-05-22T17:15:26.120Z,98139.38
2023-05-22T17:17:52.705Z,98143.09
2023-05-22T17:20:22.961Z,98144.75
2023-05-22T17:22:50.092Z,98148.06
2023-05-22T17:25:17.012Z,98154.31
2023-05-22T17:27:43.921Z,98165.28
2023-05-22T17:30:11.326Z,98166.31
2023-05-22T17:32:38.049Z,98165.31
2023-05-22T17:35:06.585Z,98166.13
2023-05-22T17:37:33.574Z,98181.66
2023-05-22T17:40:00.259Z,98182.63
2023-05-22T17:42:26.969Z,98189.66
2023-05-22T17:44:53.507Z,98188.25
2023-05-22T17:47:20.080Z,98182.63
2023-05-22T17:49:46.780Z,98184.75
2023-05-22T17:52:14.647Z,98198.25
2023-05-22T17:54:41.279Z,98203.63
2023-05-22T17:57:07.957Z,98206.00
2023-05-22T17:59:34.465Z,98205.16
2023-05-22T18:02:01.253Z,98210.31
2023-05-22T18:04:27.990Z,98207.19
2023-05-22T18:06:54.529Z,98215.28
2023-05-22T18:09:21.149Z,98216.72
2023-05-22T18:11:49.956Z,98219.97
2023-05-22T18:14:16.528Z,98230.19
2023-05-22T18:16:43.124Z,98244.25
2023-05-22T18:19:09.808Z,98243.03
2023-05-22T18:21:39.639Z,98239.66
2023-05-22T18:24:06.355Z,98237.63
2023-05-22T18:26:32.947Z,98234.56
2023-05-22T18:28:59.579Z,98237.13
2023-05-22T18:31:26.302Z,98243.50
2023-05-22T18:33:52.933Z,98238.19
2023-05-22T18:36:19.574Z,98241.25
2023-05-22T18:38:46.200Z,98235.06
2023-05-22T18:41:12.737Z,98245.38
2023-05-22T18:43:39.346Z,98246.94
2023-05-22T18:46:05.873Z,98252.78
2023-05-22T18:48:33.105Z,98252.47
2023-05-22T18:51:00.150Z,98263.78
2023-05-22T18:53:27.273Z,98261.28
2023-05-22T18:55:54.067Z,98256.50
2023-05-22T18:58:21.027Z,98257.69
2023-05-22T19:00:48.214Z,98256.13
2023-05-22T19:03:15.057Z,98259.56
2023-05-22T19:05:41.665Z,98264.22
2023-05-22T19:08:08.365Z,98264.22
2023-05-22T19:10:34.914Z,98270.34
2023-05-22T19:13:01.514Z,98270.72
2023-05-22T19:15:28.106Z,98279.59
2023-05-22T19:17:54.769Z,98286.81
2023-05-22T19:20:22.896Z,98289.13
2023-05-22T19:22:50.930Z,98281.19
2023-05-22T19:25:17.905Z,98282.56
2023-05-22T19:27:44.815Z,98290.44
2023-05-22T19:30:14.884Z,98297.19
2023-05-22T19:32:41.645Z,98304.72
2023-05-22T19:35:08.844Z,98308.53
2023-05-22T19:37:35.427Z,98312.94
2023-05-22T19:40:01.986Z,98323.16
2023-05-22T19:42:28.483Z,98322.97
2023-05-22T19:44:55.264Z,98333.69
2023-05-22T19:47:21.809Z,98345.50
2023-05-22T19:49:48.401Z,98338.34
2023-05-22T19:52:14.914Z,98333.38
2023-05-22T19:54:41.590Z,98331.59
2023-05-22T19:57:08.156Z,98329.31
2023-05-22T19:59:36.653Z,98327.25
2023-05-22T20:02:03.855Z,98335.63
2023-05-22T20:04:31.520Z,98334.72
2023-05-22T20:07:02.130Z,98344.44
2023-05-22T20:09:28.775Z,98335.63
2023-05-22T20:11:55.319Z,98339.13
2023-05-22T20:14:21.887Z,98342.69
2023-05-22T20:16:48.499Z,98341.44
2023-05-22T20:19:15.307Z,98341.47
2023-05-22T20:21:41.907Z,98338.19
2023-05-22T20:24:24.996Z,98333.06
2023-05-22T20:26:52.354Z,98328.19
2023-05-22T20:29:19.247Z,98332.56
2023-05-22T20:31:46.500Z,98328.88
2023-05-22T20:34:13.138Z,98335.75
2023-05-22T20:36:42.324Z,98338.41
2023-05-22T20:39:11.636Z,98341.63
2023-05-22T20:41:38.492Z,98346.69
2023-05-22T20:44:05.180Z,98345.91
2023-05-22T20:46:32.121Z,98339.22
2023-05-22T20:48:59.428Z,98348.28
2023-05-22T20:51:32.336Z,98347.59
2023-05-22T20:54:00.144Z,98341.75
2023-05-22T20:56:27.189Z,98349.13
2023-05-22T20:58:54.907Z,98357.97
2023-05-22T21:01:24.999Z,98351.44
2023-05-22T21:03:56.203Z,98359.31
2023-05-22T21:06:23.287Z,98361.78
2023-05-22T21:08:51.374Z,98359.44
2023-05-22T21:11:19.804Z,98367.63
2023-05-22T21:13:46.347Z,98364.63
2023-05-22T21:16:12.949Z,98373.81
2023-05-22T21:18:39.644Z,98375.78
2023-05-22T21:21:06.181Z,98369.44
2023-05-22T21:23:32.660Z,98378.59
2023-05-22T21:25:59.251Z,98378.13
2023-05-22T21:28:25.872Z,98369.47
2023-05-22T21:30:52.394Z,98370.13
2023-05-22T21:33:18.964Z,98377.81
2023-05-22T21:35:45.586Z,98372.34
2023-05-22T21:38:12.264Z,98372.97
2023-05-22T21:40:40.670Z,98370.50
2023-05-22T21:43:07.401Z,98383.84
2023-05-22T21:45:34.212Z,98382.16
2023-05-22T21:48:01.012Z,98372.66
2023-05-22T21:50:27.590Z,98370.13
2023-05-22T21:52:54.093Z,98367.13
2023-05-22T21:55:21.236Z,98367.81
2023-05-22T21:57:47.786Z,98374.31
2023-05-22T22:00:15.311Z,98370.97
2023-05-22T22:02:41.952Z,98381.63
2023-05-22T22:05:08.939Z,98383.78
2023-05-22T22:07:35.491Z,98389.81
2023-05-22T22:10:02.038Z,98387.97
2023-05-22T22:12:28.557Z,98381.28
2023-05-22T22:14:57.653Z,98380.75
2023-05-22T22:17:24.258Z,98382.94
2023-05-22T22:19:53.357Z,98393.59
2023-05-22T22:22:22.393Z,98388.03
2023-05-22T22:24:48.902Z,98389.53
2023-05-22T22:27:15.549Z,98387.50
2023-05-22T22:29:43.508Z,98381.50
2023-05-22T22:32:10.096Z,98386.16
2023-05-22T22:34:37.568Z,98388.66
2023-05-22T22:37:05.869Z,98389.97
2023-05-22T22:39:32.440Z,98388.59
2023-05-22T22:42:04.859Z,98388.56
2023-05-22T22:44:32.294Z,98378.16
2023-05-22T22:46:59.052Z,98381.16
2023-05-22T22:49:25.631Z,98381.16
2023-05-22T22:51:52.413Z,98389.16
2023-05-22T22:54:18.974Z,98386.66
2023-05-22T22:56:49.658Z,98387.00
2023-05-22T22:59:17.020Z,98395.00
2023-05-22T23:01:43.794Z,98384.41
2023-05-22T23:04:10.561Z,98392.84
2023-05-22T23:06:37.189Z,98402.78
2023-05-22T23:09:03.964Z,98405.63
2023-05-22T23:11:37.169Z,98404.03
2023-05-22T23:14:08.808Z,98398.44
2023-05-22T23:16:36.970Z,98402.78
2023-05-22T23:19:08.699Z,98409.13
2023-05-22T23:21:35.942Z,98401.97
2023-05-22T23:24:04.751Z,98406.59
2023-05-22T23:26:32.056Z,98410.03
2023-05-22T23:28:59.844Z,98409.50
2023-05-22T23:31:29.989Z,98412.00
2023-05-22T23:33:57.573Z,98403.53
2023-05-22T23:36:24.624Z,98408.06
2023-05-22T23:38:51.502Z,98408.25
2023-05-22T23:41:18.553Z,98411.72
2023-05-22T23:43:46.113Z,98408.16
2023-05-22T23:46:13.932Z,98412.41
2023-05-22T23:48:42.019Z,98414.50
2023-05-22T23:51:09.634Z,98410.94
2023-05-22T23:53:36.883Z,98411.75
2023-05-22T23:56:04.648Z,98414.41
2023-05-22T23:58:32.036Z,98412.13
